Rysum — V2JO — position and weather

sailwx.info

Track history (hours):
 
Tides and Currents Weather Stations Pressure Air Temp Water Temp Dewpoint Dewpoint Depression Visibility Wind Speed Wind Dir Waves Ship Positions

Rysum

Last reported at 2017-Nov-19 23:56 UTC. Time now 2017-Nov-21 06:20 UTC.
Position N 43°47' W 007°16'.

Length 82 m; draft 3.4 m.

Type: Cargo ship. MMSI: 304010168.

Date/timePositionNaut miles runAvg speedWind from/ knotsBaromVisibWave heightAir tempDewpointWater temp
2017-Nov-19 23:56N 43°47' W 007°16'4 8.5
2017-Nov-19 23:30N 43°47' W 007°21'4 8.2
2017-Nov-19 23:00N 43°48' W 007°26'4 8.4
2017-Nov-19 22:30N 43°49' W 007°32'4 8.5
2017-Nov-19 22:01N 43°50' W 007°38'4 8.1
2017-Nov-19 21:28N 43°50' W 007°44'7 8.6
2017-Nov-19 20:37N 43°50' W 007°54'2 8.1
2017-Nov-19 20:24N 43°50' W 007°56'3 8.0
2017-Nov-19 20:00N 43°50' W 008°01'6 8.3
2017-Nov-19 19:19N 43°48' W 008°08'235 7.3
2017-Nov-18 10:52N 40°05' W 009°49'13 8.6
2017-Nov-18 09:19N 39°51' W 009°49'17 8.3
2017-Nov-18 07:15N 39°34' W 009°50'2 8.3
2017-Nov-18 07:01N 39°32' W 009°50'4 8.3
2017-Nov-18 06:30N 39°28' W 009°50'6 8.4
2017-Nov-18 05:50N 39°22' W 009°49'3 8.9
2017-Nov-18 05:30N 39°19' W 009°50'5 9.1
2017-Nov-18 04:59N 39°15' W 009°50'4 9.2
2017-Nov-18 04:31N 39°10' W 009°50'4 8.8
2017-Nov-18 04:01N 39°06' W 009°50'4 8.7
2017-Nov-18 03:31N 39°02' W 009°50'4 8.5
2017-Nov-18 03:00N 38°57' W 009°50'4 8.6
2017-Nov-18 02:31N 38°53' W 009°50'4 8.7
2017-Nov-18 02:01N 38°49' W 009°50'4 8.6
2017-Nov-18 01:30N 38°44' W 009°50'4 8.7
2017-Nov-18 01:01N 38°40' W 009°50'4 8.0
2017-Nov-18 00:30N 38°37' W 009°47'4 8.8
2017-Nov-18 00:01N 38°34' W 009°42'4 8.6
2017-Nov-17 23:31N 38°32' W 009°38'4 8.5
2017-Nov-17 23:01N 38°30' W 009°33'4 8.6
2017-Nov-17 22:31N 38°28' W 009°28'4 8.8
2017-Nov-17 22:00N 38°25' W 009°23'4 8.8
2017-Nov-17 21:30N 38°23' W 009°19'4 8.8
2017-Nov-17 21:00N 38°21' W 009°14'4 8.7
2017-Nov-17 20:30N 38°23' W 009°09'4 8.9
2017-Nov-17 20:01N 38°25' W 009°04'4 8.9
2017-Nov-17 19:31N 38°27' W 008°59'510.1
2017-Nov-17 19:01N 38°31' W 008°54'3 5.9
2017-Nov-17 18:30N 38°30' W 008°51'0 0.0
2017-Nov-17 18:00N 38°30' W 008°51'0 0.0
2017-Nov-17 17:27N 38°30' W 008°51'0 0.0
2017-Nov-17 16:57N 38°30' W 008°51'0 0.0
2017-Nov-17 16:21N 38°30' W 008°51'0 0.0
2017-Nov-17 15:57N 38°30' W 008°51'0 0.0
2017-Nov-17 15:24N 38°30' W 008°51'0 0.0
2017-Nov-17 14:54N 38°30' W 008°51'0 0.0
2017-Nov-17 14:05N 38°30' W 008°51'0 0.0
2017-Nov-17 13:56N 38°30' W 008°51'0 0.0
2017-Nov-17 12:56N 38°30' W 008°51'0 0.0
2017-Nov-17 12:20N 38°30' W 008°51'0 0.0
2017-Nov-17 11:56N 38°30' W 008°51'0 0.0
2017-Nov-17 11:29N 38°30' W 008°51'0 0.0
2017-Nov-17 10:59N 38°30' W 008°51'0 0.0
2017-Nov-17 10:29N 38°30' W 008°51'0 0.0
2017-Nov-17 09:59N 38°30' W 008°51'0 0.0
2017-Nov-17 09:20N 38°30' W 008°51'0 0.0
2017-Nov-17 08:59N 38°30' W 008°51'0 0.0
2017-Nov-17 08:20N 38°30' W 008°51'0 0.0
2017-Nov-17 07:50N 38°30' W 008°51'0 0.0
2017-Nov-17 07:26N 38°30' W 008°51'2 4.7
2017-Nov-17 07:00N 38°31' W 008°53'3 6.6
2017-Nov-17 06:30N 38°29' W 008°56'3 6.4
2017-Nov-17 06:00N 38°26' W 008°59'4 7.2
2017-Nov-17 05:30N 38°25' W 009°03'4 7.4
2017-Nov-17 05:00N 38°24' W 009°08'3 6.9
2017-Nov-17 04:30N 38°23' W 009°12'3 7.0
2017-Nov-17 04:00N 38°24' W 009°16'4 7.2
2017-Nov-17 03:30N 38°25' W 009°20'3 6.8
2017-Nov-17 03:00N 38°26' W 009°25'4 7.0
2017-Nov-17 02:30N 38°27' W 009°29'3 6.7
2017-Nov-17 02:00N 38°28' W 009°33'3 6.6
2017-Nov-17 01:30N 38°29' W 009°37'3 6.9
2017-Nov-17 01:00N 38°29' W 009°41'3 6.8
2017-Nov-17 00:30N 38°30' W 009°45'3 6.8
2017-Nov-17 00:00N 38°31' W 009°50'3 6.7
2017-Nov-16 23:30N 38°33' W 009°54'3 6.8
2017-Nov-16 23:00N 38°34' W 009°58'4 7.5
2017-Nov-16 22:30N 38°35' W 010°02'4 7.8
2017-Nov-16 22:00N 38°38' W 010°04'4 8.1
2017-Nov-16 21:30N 38°42' W 010°05'4 8.4
2017-Nov-16 21:00N 38°47' W 010°05'6 8.4
2017-Nov-16 20:14N 38°53' W 010°05'2 8.8
2017-Nov-16 20:00N 38°55' W 010°05'4 8.5
2017-Nov-16 19:30N 38°59' W 010°05'4 8.6
2017-Nov-16 19:00N 39°04' W 010°05'4 8.8
2017-Nov-16 18:30N 39°08' W 010°05'4 8.9
2017-Nov-16 18:00N 39°13' W 010°05'5 8.6
2017-Nov-16 17:28N 39°17' W 010°05'4 8.7
2017-Nov-16 17:00N 39°21' W 010°05'  
2017-Nov-13 23:29N 47°40' W 006°48'5 7.2
2017-Nov-13 22:44N 47°44' W 006°44'2 7.2
2017-Nov-13 22:29N 47°46' W 006°43'4 7.2
2017-Nov-13 21:57N 47°49' W 006°40'181 7.7
2017-Nov-12 22:17N 49°53' W 003°18'9 8.2
2017-Nov-12 21:09N 49°57' W 003°05'2 8.1
2017-Nov-12 20:56N 49°57' W 003°02'4 8.6
2017-Nov-12 20:30N 49°58' W 002°57'4 8.4
2017-Nov-12 20:00N 49°60' W 002°50'29 6.0
2017-Nov-12 15:15N 50°09' W 002°08'9 3.9
2017-Nov-12 12:57N 50°12' W 001°55'2 4.5
2017-Nov-12 12:30N 50°12' W 001°52'2 4.9
2017-Nov-12 12:00N 50°13' W 001°48'3 5.5
2017-Nov-12 11:30N 50°14' W 001°44'3 5.9
2017-Nov-12 11:00N 50°14' W 001°40'4 6.7
2017-Nov-12 10:27N 50°15' W 001°34'3 7.2
2017-Nov-12 10:00N 50°16' W 001°29'4 7.6
2017-Nov-12 09:30N 50°17' W 001°24'41 8.0
2017-Nov-12 04:25N 50°28' W 000°22'3 6.4
2017-Nov-12 04:00N 50°29' W 000°18'3 6.5
2017-Nov-12 03:30N 50°30' W 000°14'3 6.7
2017-Nov-12 03:00N 50°31' W 000°08'3 6.9
2017-Nov-12 02:30N 50°32' W 000°03'3 7.0
2017-Nov-12 02:00N 50°33' E 000°02'4 7.3
2017-Nov-12 01:30N 50°34' E 000°08'4 7.7
2017-Nov-12 01:00N 50°35' E 000°14'5 8.2
2017-Nov-12 00:23N 50°36' E 000°21'3 8.7
2017-Nov-12 00:00N 50°37' E 000°26'4 8.9
2017-Nov-11 23:30N 50°39' E 000°33'5 9.2
2017-Nov-11 23:00N 50°41' E 000°39'5 9.3
2017-Nov-11 22:30N 50°44' E 000°45'5 9.3
2017-Nov-11 22:00N 50°46' E 000°51'11 8.9
2017-Nov-11 20:44N 50°53' E 001°05'2 8.5
2017-Nov-11 20:30N 50°54' E 001°08'4 8.1
2017-Nov-11 19:57N 50°57' E 001°13'3 7.5
2017-Nov-11 19:30N 50°59' E 001°17'4 7.0
2017-Nov-11 19:00N 51°01' E 001°22'3 6.7
2017-Nov-11 18:30N 51°03' E 001°26'3 6.2
2017-Nov-11 18:00N 51°05' E 001°30'3 6.0
2017-Nov-11 17:30N 51°07' E 001°33'3 6.0
2017-Nov-11 17:00N 51°09' E 001°37'3 6.5
2017-Nov-11 16:30N 51°11' E 001°41'3 6.8
2017-Nov-11 16:00N 51°14' E 001°45'4 7.8
2017-Nov-11 15:30N 51°17' E 001°48'4 8.7
2017-Nov-11 15:00N 51°21' E 001°51'5 9.4
2017-Nov-11 14:30N 51°25' E 001°53'5 9.6
2017-Nov-11 14:00N 51°29' E 001°58'5 9.7
2017-Nov-11 13:30N 51°33' E 002°03'6 9.5
2017-Nov-11 12:54N 51°37' E 002°10'4 9.4
2017-Nov-11 12:28N 51°40' E 002°15'54 7.0
2017-Nov-11 04:43N 52°21' E 003°11'2 6.7
2017-Nov-11 04:29N 52°23' E 003°13'3 6.7
2017-Nov-11 03:59N 52°25' E 003°16'3 6.8
2017-Nov-11 03:30N 52°28' E 003°19'4 7.2
2017-Nov-11 03:00N 52°31' E 003°23'  
Track history (hours):
 
Tides and Currents Weather Stations Pressure Air Temp Water Temp Dewpoint Dewpoint Depression Visibility Wind Speed Wind Dir Waves Ship Positions

Rysum

Last reported at 2017-Nov-19 23:56 UTC. Time now 2017-Nov-21 06:20 UTC.
Position N 43°47' W 007°16'.

Length 82 m; draft 3.4 m.

Type: Cargo ship. MMSI: 304010168.

Date/timePositionNaut miles runAvg speedWind from/ knotsBaromVisibWave heightAir tempDewpointWater temp
2017-Nov-19 23:56N 43°47' W 007°16'4 8.5
2017-Nov-19 23:30N 43°47' W 007°21'4 8.2
2017-Nov-19 23:00N 43°48' W 007°26'4 8.4
2017-Nov-19 22:30N 43°49' W 007°32'4 8.5
2017-Nov-19 22:01N 43°50' W 007°38'4 8.1
2017-Nov-19 21:28N 43°50' W 007°44'7 8.6
2017-Nov-19 20:37N 43°50' W 007°54'2 8.1
2017-Nov-19 20:24N 43°50' W 007°56'3 8.0
2017-Nov-19 20:00N 43°50' W 008°01'6 8.3
2017-Nov-19 19:19N 43°48' W 008°08'235 7.3
2017-Nov-18 10:52N 40°05' W 009°49'13 8.6
2017-Nov-18 09:19N 39°51' W 009°49'17 8.3
2017-Nov-18 07:15N 39°34' W 009°50'2 8.3
2017-Nov-18 07:01N 39°32' W 009°50'4 8.3
2017-Nov-18 06:30N 39°28' W 009°50'6 8.4
2017-Nov-18 05:50N 39°22' W 009°49'3 8.9
2017-Nov-18 05:30N 39°19' W 009°50'5 9.1
2017-Nov-18 04:59N 39°15' W 009°50'4 9.2
2017-Nov-18 04:31N 39°10' W 009°50'4 8.8
2017-Nov-18 04:01N 39°06' W 009°50'4 8.7
2017-Nov-18 03:31N 39°02' W 009°50'4 8.5
2017-Nov-18 03:00N 38°57' W 009°50'4 8.6
2017-Nov-18 02:31N 38°53' W 009°50'4 8.7
2017-Nov-18 02:01N 38°49' W 009°50'4 8.6
2017-Nov-18 01:30N 38°44' W 009°50'4 8.7
2017-Nov-18 01:01N 38°40' W 009°50'4 8.0
2017-Nov-18 00:30N 38°37' W 009°47'4 8.8
2017-Nov-18 00:01N 38°34' W 009°42'4 8.6
2017-Nov-17 23:31N 38°32' W 009°38'4 8.5
2017-Nov-17 23:01N 38°30' W 009°33'4 8.6
2017-Nov-17 22:31N 38°28' W 009°28'4 8.8
2017-Nov-17 22:00N 38°25' W 009°23'4 8.8
2017-Nov-17 21:30N 38°23' W 009°19'4 8.8
2017-Nov-17 21:00N 38°21' W 009°14'4 8.7
2017-Nov-17 20:30N 38°23' W 009°09'4 8.9
2017-Nov-17 20:01N 38°25' W 009°04'4 8.9
2017-Nov-17 19:31N 38°27' W 008°59'510.1
2017-Nov-17 19:01N 38°31' W 008°54'3 5.9
2017-Nov-17 18:30N 38°30' W 008°51'0 0.0
2017-Nov-17 18:00N 38°30' W 008°51'0 0.0
2017-Nov-17 17:27N 38°30' W 008°51'0 0.0
2017-Nov-17 16:57N 38°30' W 008°51'0 0.0
2017-Nov-17 16:21N 38°30' W 008°51'0 0.0
2017-Nov-17 15:57N 38°30' W 008°51'0 0.0
2017-Nov-17 15:24N 38°30' W 008°51'0 0.0
2017-Nov-17 14:54N 38°30' W 008°51'0 0.0
2017-Nov-17 14:05N 38°30' W 008°51'0 0.0
2017-Nov-17 13:56N 38°30' W 008°51'0 0.0
2017-Nov-17 12:56N 38°30' W 008°51'0 0.0
2017-Nov-17 12:20N 38°30' W 008°51'0 0.0
2017-Nov-17 11:56N 38°30' W 008°51'0 0.0
2017-Nov-17 11:29N 38°30' W 008°51'0 0.0
2017-Nov-17 10:59N 38°30' W 008°51'0 0.0
2017-Nov-17 10:29N 38°30' W 008°51'0 0.0
2017-Nov-17 09:59N 38°30' W 008°51'0 0.0
2017-Nov-17 09:20N 38°30' W 008°51'0 0.0
2017-Nov-17 08:59N 38°30' W 008°51'0 0.0
2017-Nov-17 08:20N 38°30' W 008°51'0 0.0
2017-Nov-17 07:50N 38°30' W 008°51'0 0.0
2017-Nov-17 07:26N 38°30' W 008°51'2 4.7
2017-Nov-17 07:00N 38°31' W 008°53'3 6.6
2017-Nov-17 06:30N 38°29' W 008°56'3 6.4
2017-Nov-17 06:00N 38°26' W 008°59'4 7.2
2017-Nov-17 05:30N 38°25' W 009°03'4 7.4
2017-Nov-17 05:00N 38°24' W 009°08'3 6.9
2017-Nov-17 04:30N 38°23' W 009°12'3 7.0
2017-Nov-17 04:00N 38°24' W 009°16'4 7.2
2017-Nov-17 03:30N 38°25' W 009°20'3 6.8
2017-Nov-17 03:00N 38°26' W 009°25'4 7.0
2017-Nov-17 02:30N 38°27' W 009°29'3 6.7
2017-Nov-17 02:00N 38°28' W 009°33'3 6.6
2017-Nov-17 01:30N 38°29' W 009°37'3 6.9
2017-Nov-17 01:00N 38°29' W 009°41'3 6.8
2017-Nov-17 00:30N 38°30' W 009°45'3 6.8
2017-Nov-17 00:00N 38°31' W 009°50'3 6.7
2017-Nov-16 23:30N 38°33' W 009°54'3 6.8
2017-Nov-16 23:00N 38°34' W 009°58'4 7.5
2017-Nov-16 22:30N 38°35' W 010°02'4 7.8
2017-Nov-16 22:00N 38°38' W 010°04'4 8.1
2017-Nov-16 21:30N 38°42' W 010°05'4 8.4
2017-Nov-16 21:00N 38°47' W 010°05'6 8.4
2017-Nov-16 20:14N 38°53' W 010°05'2 8.8
2017-Nov-16 20:00N 38°55' W 010°05'4 8.5
2017-Nov-16 19:30N 38°59' W 010°05'4 8.6
2017-Nov-16 19:00N 39°04' W 010°05'4 8.8
2017-Nov-16 18:30N 39°08' W 010°05'4 8.9
2017-Nov-16 18:00N 39°13' W 010°05'5 8.6
2017-Nov-16 17:28N 39°17' W 010°05'4 8.7
2017-Nov-16 17:00N 39°21' W 010°05'  
2017-Nov-13 23:29N 47°40' W 006°48'5 7.2
2017-Nov-13 22:44N 47°44' W 006°44'2 7.2
2017-Nov-13 22:29N 47°46' W 006°43'4 7.2
2017-Nov-13 21:57N 47°49' W 006°40'181 7.7
2017-Nov-12 22:17N 49°53' W 003°18'9 8.2
2017-Nov-12 21:09N 49°57' W 003°05'2 8.1
2017-Nov-12 20:56N 49°57' W 003°02'4 8.6
2017-Nov-12 20:30N 49°58' W 002°57'4 8.4
2017-Nov-12 20:00N 49°60' W 002°50'29 6.0
2017-Nov-12 15:15N 50°09' W 002°08'9 3.9
2017-Nov-12 12:57N 50°12' W 001°55'2 4.5
2017-Nov-12 12:30N 50°12' W 001°52'2 4.9
2017-Nov-12 12:00N 50°13' W 001°48'3 5.5
2017-Nov-12 11:30N 50°14' W 001°44'3 5.9
2017-Nov-12 11:00N 50°14' W 001°40'4 6.7
2017-Nov-12 10:27N 50°15' W 001°34'3 7.2
2017-Nov-12 10:00N 50°16' W 001°29'4 7.6
2017-Nov-12 09:30N 50°17' W 001°24'41 8.0
2017-Nov-12 04:25N 50°28' W 000°22'3 6.4
2017-Nov-12 04:00N 50°29' W 000°18'3 6.5
2017-Nov-12 03:30N 50°30' W 000°14'3 6.7
2017-Nov-12 03:00N 50°31' W 000°08'3 6.9
2017-Nov-12 02:30N 50°32' W 000°03'3 7.0
2017-Nov-12 02:00N 50°33' E 000°02'4 7.3
2017-Nov-12 01:30N 50°34' E 000°08'4 7.7
2017-Nov-12 01:00N 50°35' E 000°14'5 8.2
2017-Nov-12 00:23N 50°36' E 000°21'3 8.7
2017-Nov-12 00:00N 50°37' E 000°26'4 8.9
2017-Nov-11 23:30N 50°39' E 000°33'5 9.2
2017-Nov-11 23:00N 50°41' E 000°39'5 9.3
2017-Nov-11 22:30N 50°44' E 000°45'5 9.3
2017-Nov-11 22:00N 50°46' E 000°51'11 8.9
2017-Nov-11 20:44N 50°53' E 001°05'2 8.5
2017-Nov-11 20:30N 50°54' E 001°08'4 8.1
2017-Nov-11 19:57N 50°57' E 001°13'3 7.5
2017-Nov-11 19:30N 50°59' E 001°17'4 7.0
2017-Nov-11 19:00N 51°01' E 001°22'3 6.7
2017-Nov-11 18:30N 51°03' E 001°26'3 6.2
2017-Nov-11 18:00N 51°05' E 001°30'3 6.0
2017-Nov-11 17:30N 51°07' E 001°33'3 6.0
2017-Nov-11 17:00N 51°09' E 001°37'3 6.5
2017-Nov-11 16:30N 51°11' E 001°41'3 6.8
2017-Nov-11 16:00N 51°14' E 001°45'4 7.8
2017-Nov-11 15:30N 51°17' E 001°48'4 8.7
2017-Nov-11 15:00N 51°21' E 001°51'5 9.4
2017-Nov-11 14:30N 51°25' E 001°53'5 9.6
2017-Nov-11 14:00N 51°29' E 001°58'5 9.7
2017-Nov-11 13:30N 51°33' E 002°03'6 9.5
2017-Nov-11 12:54N 51°37' E 002°10'4 9.4
2017-Nov-11 12:28N 51°40' E 002°15'54 7.0
2017-Nov-11 04:43N 52°21' E 003°11'2 6.7
2017-Nov-11 04:29N 52°23' E 003°13'3 6.7
2017-Nov-11 03:59N 52°25' E 003°16'3 6.8
2017-Nov-11 03:30N 52°28' E 003°19'4 7.2
2017-Nov-11 03:00N 52°31' E 003°23'  

Dump ship's entire track history